Terminal Aerodrome Forecast
Issued by NWS

Home | Current Version | Previous Version | Text Only | Print | Product List | Glossary Off
Versions: 1 2 3 4 5 6 7 8 9 10 11 12 13 14 15 16 17 18

000
FTUS41 KCLE 222320
TAFFDY
TAF
KFDY 222320Z 2300/2324 20009KT P6SM OVC025
     FM230500 20008KT 6SM BR OVC018
     FM230800 20008KT 4SM BR OVC012
      TEMPO 2310/2314 2SM BR OVC008
     FM231400 22008KT P6SM OVC012
     FM231800 26008KT P6SM BKN025
     FM232100 28008KT P6SM BKN045=

USA.gov is the U.S. government's official web portal to all federal, state and local government web resources and services.